sensor_id;sensor_type;location;lat;lon;timestamp;P1;durP1;ratioP1;P2;durP2;ratioP2
22015;SDS011;11172;51.698;-0.292;2022-10-19T00:03:27;349.45;;;316.05;;
22015;SDS011;11172;51.698;-0.292;2022-10-19T00:05:53;334.35;;;302.23;;
22015;SDS011;11172;51.698;-0.292;2022-10-19T00:08:19;330.25;;;297.75;;
22015;SDS011;11172;51.698;-0.292;2022-10-19T00:10:45;338.55;;;306.00;;
22015;SDS011;11172;51.698;-0.292;2022-10-19T00:13:11;338.20;;;305.42;;
22015;SDS011;11172;51.698;-0.292;2022-10-19T00:15:38;337.42;;;305.63;;
22015;SDS011;11172;51.698;-0.292;2022-10-19T00:18:04;333.25;;;301.60;;
22015;SDS011;11172;51.698;-0.292;2022-10-19T00:20:30;332.02;;;299.80;;
22015;SDS011;11172;51.698;-0.292;2022-10-19T00:22:56;331.15;;;299.63;;
22015;SDS011;11172;51.698;-0.292;2022-10-19T00:25:22;332.73;;;301.50;;
22015;SDS011;11172;51.698;-0.292;2022-10-19T00:27:48;335.08;;;303.15;;
22015;SDS011;11172;51.698;-0.292;2022-10-19T00:30:15;329.42;;;298.25;;
22015;SDS011;11172;51.698;-0.292;2022-10-19T00:32:41;335.35;;;303.00;;
22015;SDS011;11172;51.698;-0.292;2022-10-19T00:35:07;339.45;;;307.42;;
22015;SDS011;11172;51.698;-0.292;2022-10-19T00:37:36;340.98;;;307.33;;
22015;SDS011;11172;51.698;-0.292;2022-10-19T00:40:02;334.08;;;302.23;;
22015;SDS011;11172;51.698;-0.292;2022-10-19T00:42:35;328.42;;;296.67;;
22015;SDS011;11172;51.698;-0.292;2022-10-19T00:45:08;344.00;;;311.52;;
22015;SDS011;11172;51.698;-0.292;2022-10-19T00:47:37;344.35;;;311.08;;
22015;SDS011;11172;51.698;-0.292;2022-10-19T00:50:03;351.73;;;318.42;;
22015;SDS011;11172;51.698;-0.292;2022-10-19T00:52:29;342.05;;;309.63;;
22015;SDS011;11172;51.698;-0.292;2022-10-19T00:54:55;343.73;;;311.38;;
22015;SDS011;11172;51.698;-0.292;2022-10-19T00:57:25;344.13;;;311.00;;
22015;SDS011;11172;51.698;-0.292;2022-10-19T00:59:53;345.38;;;311.48;;
22015;SDS011;11172;51.698;-0.292;2022-10-19T01:02:20;349.52;;;316.20;;
22015;SDS011;11172;51.698;-0.292;2022-10-19T01:04:46;342.02;;;309.02;;
22015;SDS011;11172;51.698;-0.292;2022-10-19T01:07:13;335.25;;;303.40;;
22015;SDS011;11172;51.698;-0.292;2022-10-19T01:09:39;338.77;;;306.23;;
22015;SDS011;11172;51.698;-0.292;2022-10-19T01:28:10;339.00;;;307.00;;
22015;SDS011;11172;51.698;-0.292;2022-10-19T01:33:22;342.98;;;310.10;;
22015;SDS011;11172;51.698;-0.292;2022-10-19T01:35:59;342.88;;;310.30;;
22015;SDS011;11172;51.698;-0.292;2022-10-19T01:38:46;342.15;;;309.45;;
22015;SDS011;11172;51.698;-0.292;2022-10-19T01:41:16;354.27;;;320.13;;
22015;SDS011;11172;51.698;-0.292;2022-10-19T01:44:00;341.75;;;308.55;;
22015;SDS011;11172;51.698;-0.292;2022-10-19T01:46:29;349.70;;;316.10;;
22015;SDS011;11172;51.698;-0.292;2022-10-19T01:49:03;351.48;;;317.85;;
22015;SDS011;11172;51.698;-0.292;2022-10-19T01:51:33;343.30;;;310.67;;
22015;SDS011;11172;51.698;-0.292;2022-10-19T01:54:02;345.15;;;312.88;;
22015;SDS011;11172;51.698;-0.292;2022-10-19T01:56:31;329.75;;;297.75;;
22015;SDS011;11172;51.698;-0.292;2022-10-19T02:01:46;337.33;;;304.33;;
22015;SDS011;11172;51.698;-0.292;2022-10-19T02:04:14;336.75;;;304.48;;
22015;SDS011;11172;51.698;-0.292;2022-10-19T02:09:13;332.77;;;301.08;;
22015;SDS011;11172;51.698;-0.292;2022-10-19T02:11:43;330.85;;;299.73;;
22015;SDS011;11172;51.698;-0.292;2022-10-19T02:14:10;323.45;;;292.00;;
22015;SDS011;11172;51.698;-0.292;2022-10-19T02:16:44;331.70;;;299.92;;
22015;SDS011;11172;51.698;-0.292;2022-10-19T02:19:12;329.13;;;298.00;;
22015;SDS011;11172;51.698;-0.292;2022-10-19T02:21:39;325.75;;;295.10;;
22015;SDS011;11172;51.698;-0.292;2022-10-19T02:24:05;316.70;;;287.00;;
22015;SDS011;11172;51.698;-0.292;2022-10-19T02:26:31;321.25;;;290.42;;
22015;SDS011;11172;51.698;-0.292;2022-10-19T02:28:57;342.67;;;305.98;;
22015;SDS011;11172;51.698;-0.292;2022-10-19T02:31:24;340.30;;;309.45;;
22015;SDS011;11172;51.698;-0.292;2022-10-19T02:33:50;320.75;;;290.50;;
22015;SDS011;11172;51.698;-0.292;2022-10-19T02:36:16;320.67;;;290.05;;
22015;SDS011;11172;51.698;-0.292;2022-10-19T02:38:43;323.88;;;292.58;;
22015;SDS011;11172;51.698;-0.292;2022-10-19T02:44:14;353.00;;;319.15;;
22015;SDS011;11172;51.698;-0.292;2022-10-19T02:46:45;330.40;;;298.95;;
22015;SDS011;11172;51.698;-0.292;2022-10-19T02:49:13;324.88;;;293.55;;
22015;SDS011;11172;51.698;-0.292;2022-10-19T02:51:53;319.83;;;289.10;;
22015;SDS011;11172;51.698;-0.292;2022-10-19T02:54:19;324.55;;;293.77;;
22015;SDS011;11172;51.698;-0.292;2022-10-19T02:56:45;309.73;;;279.50;;
22015;SDS011;11172;51.698;-0.292;2022-10-19T02:59:11;309.40;;;279.65;;
22015;SDS011;11172;51.698;-0.292;2022-10-19T03:01:37;307.10;;;277.92;;
22015;SDS011;11172;51.698;-0.292;2022-10-19T03:04:03;328.48;;;298.48;;
22015;SDS011;11172;51.698;-0.292;2022-10-19T03:06:29;300.73;;;272.52;;
22015;SDS011;11172;51.698;-0.292;2022-10-19T03:08:55;310.40;;;281.70;;
22015;SDS011;11172;51.698;-0.292;2022-10-19T03:11:21;305.30;;;276.73;;
22015;SDS011;11172;51.698;-0.292;2022-10-19T03:13:47;309.80;;;280.88;;
22015;SDS011;11172;51.698;-0.292;2022-10-19T03:16:13;304.67;;;276.30;;
22015;SDS011;11172;51.698;-0.292;2022-10-19T03:18:39;301.60;;;273.05;;
22015;SDS011;11172;51.698;-0.292;2022-10-19T03:21:07;317.23;;;283.10;;
22015;SDS011;11172;51.698;-0.292;2022-10-19T03:23:34;293.55;;;265.67;;
22015;SDS011;11172;51.698;-0.292;2022-10-19T03:26:00;297.13;;;268.63;;
22015;SDS011;11172;51.698;-0.292;2022-10-19T03:28:26;292.88;;;265.08;;
22015;SDS011;11172;51.698;-0.292;2022-10-19T03:30:52;295.15;;;266.90;;
22015;SDS011;11172;51.698;-0.292;2022-10-19T03:33:18;294.23;;;266.25;;
22015;SDS011;11172;51.698;-0.292;2022-10-19T03:35:44;300.38;;;271.05;;
22015;SDS011;11172;51.698;-0.292;2022-10-19T03:38:10;290.13;;;262.50;;
22015;SDS011;11172;51.698;-0.292;2022-10-19T03:40:36;296.27;;;269.08;;
22015;SDS011;11172;51.698;-0.292;2022-10-19T03:43:02;313.23;;;275.95;;
22015;SDS011;11172;51.698;-0.292;2022-10-19T03:45:30;297.75;;;268.90;;
22015;SDS011;11172;51.698;-0.292;2022-10-19T03:47:55;300.33;;;272.58;;
22015;SDS011;11172;51.698;-0.292;2022-10-19T03:50:21;292.00;;;264.02;;
22015;SDS011;11172;51.698;-0.292;2022-10-19T03:52:47;298.35;;;270.70;;
22015;SDS011;11172;51.698;-0.292;2022-10-19T03:55:14;293.13;;;265.50;;
22015;SDS011;11172;51.698;-0.292;2022-10-19T03:57:40;293.30;;;266.08;;
22015;SDS011;11172;51.698;-0.292;2022-10-19T04:00:07;290.33;;;263.08;;
22015;SDS011;11172;51.698;-0.292;2022-10-19T04:05:30;308.77;;;278.90;;
22015;SDS011;11172;51.698;-0.292;2022-10-19T04:07:56;298.98;;;270.95;;
22015;SDS011;11172;51.698;-0.292;2022-10-19T04:10:22;291.25;;;263.77;;
22015;SDS011;11172;51.698;-0.292;2022-10-19T04:15:24;278.30;;;251.68;;
22015;SDS011;11172;51.698;-0.292;2022-10-19T04:20:20;301.55;;;270.20;;
22015;SDS011;11172;51.698;-0.292;2022-10-19T04:22:46;287.35;;;260.00;;
22015;SDS011;11172;51.698;-0.292;2022-10-19T04:25:12;276.60;;;250.13;;
22015;SDS011;11172;51.698;-0.292;2022-10-19T04:27:39;284.80;;;257.25;;
22015;SDS011;11172;51.698;-0.292;2022-10-19T04:30:06;280.48;;;253.52;;
22015;SDS011;11172;51.698;-0.292;2022-10-19T04:32:32;279.52;;;252.60;;
22015;SDS011;11172;51.698;-0.292;2022-10-19T04:34:58;272.08;;;246.25;;
22015;SDS011;11172;51.698;-0.292;2022-10-19T04:37:24;285.08;;;257.98;;
22015;SDS011;11172;51.698;-0.292;2022-10-19T04:42:16;277.80;;;251.80;;
22015;SDS011;11172;51.698;-0.292;2022-10-19T04:44:42;274.35;;;248.00;;
22015;SDS011;11172;51.698;-0.292;2022-10-19T04:47:08;266.70;;;241.20;;
22015;SDS011;11172;51.698;-0.292;2022-10-19T04:49:34;269.23;;;243.52;;
22015;SDS011;11172;51.698;-0.292;2022-10-19T04:52:01;263.58;;;238.35;;
22015;SDS011;11172;51.698;-0.292;2022-10-19T04:54:27;283.73;;;254.98;;
22015;SDS011;11172;51.698;-0.292;2022-10-19T04:56:56;259.95;;;235.50;;
22015;SDS011;11172;51.698;-0.292;2022-10-19T04:59:51;273.35;;;247.95;;
22015;SDS011;11172;51.698;-0.292;2022-10-19T05:05:15;376.67;;;281.90;;
22015;SDS011;11172;51.698;-0.292;2022-10-19T05:07:41;260.65;;;235.80;;
22015;SDS011;11172;51.698;-0.292;2022-10-19T05:10:08;245.95;;;222.20;;
22015;SDS011;11172;51.698;-0.292;2022-10-19T05:12:35;250.32;;;226.20;;
22015;SDS011;11172;51.698;-0.292;2022-10-19T05:15:01;249.30;;;225.48;;
22015;SDS011;11172;51.698;-0.292;2022-10-19T05:17:31;248.68;;;225.50;;
22015;SDS011;11172;51.698;-0.292;2022-10-19T05:19:57;246.65;;;223.00;;
22015;SDS011;11172;51.698;-0.292;2022-10-19T05:28:31;264.50;;;240.43;;
22015;SDS011;11172;51.698;-0.292;2022-10-19T05:31:04;254.20;;;230.27;;
22015;SDS011;11172;51.698;-0.292;2022-10-19T05:35:56;292.45;;;264.08;;
22015;SDS011;11172;51.698;-0.292;2022-10-19T05:41:41;318.08;;;265.00;;
22015;SDS011;11172;51.698;-0.292;2022-10-19T05:46:43;232.18;;;208.60;;
22015;SDS011;11172;51.698;-0.292;2022-10-19T05:49:12;245.77;;;222.52;;
22015;SDS011;11172;51.698;-0.292;2022-10-19T05:51:40;244.27;;;221.07;;
22015;SDS011;11172;51.698;-0.292;2022-10-19T05:54:09;240.82;;;217.65;;
22015;SDS011;11172;51.698;-0.292;2022-10-19T05:56:38;234.27;;;211.57;;
22015;SDS011;11172;51.698;-0.292;2022-10-19T05:59:14;227.32;;;205.30;;
22015;SDS011;11172;51.698;-0.292;2022-10-19T06:01:41;235.80;;;213.13;;
22015;SDS011;11172;51.698;-0.292;2022-10-19T06:04:07;233.02;;;210.50;;
22015;SDS011;11172;51.698;-0.292;2022-10-19T06:06:35;237.90;;;215.77;;
22015;SDS011;11172;51.698;-0.292;2022-10-19T06:11:31;227.82;;;206.05;;
22015;SDS011;11172;51.698;-0.292;2022-10-19T06:13:59;238.57;;;215.55;;
22015;SDS011;11172;51.698;-0.292;2022-10-19T06:16:26;228.57;;;206.93;;
22015;SDS011;11172;51.698;-0.292;2022-10-19T06:18:54;235.95;;;213.10;;
22015;SDS011;11172;51.698;-0.292;2022-10-19T06:21:21;235.90;;;213.75;;
22015;SDS011;11172;51.698;-0.292;2022-10-19T06:24:06;230.15;;;207.98;;
22015;SDS011;11172;51.698;-0.292;2022-10-19T06:26:32;239.90;;;216.85;;
22015;SDS011;11172;51.698;-0.292;2022-10-19T06:29:00;227.90;;;206.18;;
22015;SDS011;11172;51.698;-0.292;2022-10-19T06:31:27;231.93;;;209.65;;
22015;SDS011;11172;51.698;-0.292;2022-10-19T06:33:53;230.63;;;206.95;;
22015;SDS011;11172;51.698;-0.292;2022-10-19T06:36:23;219.02;;;197.40;;
22015;SDS011;11172;51.698;-0.292;2022-10-19T06:42:10;239.05;;;218.00;;
22015;SDS011;11172;51.698;-0.292;2022-10-19T06:47:19;220.43;;;198.98;;
22015;SDS011;11172;51.698;-0.292;2022-10-19T06:49:45;236.10;;;213.43;;
22015;SDS011;11172;51.698;-0.292;2022-10-19T07:02:05;242.15;;;218.25;;
22015;SDS011;11172;51.698;-0.292;2022-10-19T07:07:07;209.68;;;189.07;;
22015;SDS011;11172;51.698;-0.292;2022-10-19T07:09:33;203.05;;;183.55;;
22015;SDS011;11172;51.698;-0.292;2022-10-19T07:11:59;210.10;;;190.07;;
22015;SDS011;11172;51.698;-0.292;2022-10-19T07:14:25;200.27;;;180.10;;
22015;SDS011;11172;51.698;-0.292;2022-10-19T07:16:55;206.63;;;186.15;;
22015;SDS011;11172;51.698;-0.292;2022-10-19T07:19:24;190.23;;;171.40;;
22015;SDS011;11172;51.698;-0.292;2022-10-19T07:21:51;189.98;;;171.00;;
22015;SDS011;11172;51.698;-0.292;2022-10-19T07:24:17;202.85;;;180.82;;
22015;SDS011;11172;51.698;-0.292;2022-10-19T07:26:48;256.40;;;204.93;;
22015;SDS011;11172;51.698;-0.292;2022-10-19T07:31:40;195.93;;;176.80;;
22015;SDS011;11172;51.698;-0.292;2022-10-19T07:34:19;194.18;;;175.23;;
22015;SDS011;11172;51.698;-0.292;2022-10-19T07:36:50;190.65;;;172.50;;
22015;SDS011;11172;51.698;-0.292;2022-10-19T07:39:16;197.90;;;179.00;;
22015;SDS011;11172;51.698;-0.292;2022-10-19T07:41:44;192.05;;;173.52;;
22015;SDS011;11172;51.698;-0.292;2022-10-19T07:46:36;182.20;;;165.18;;
22015;SDS011;11172;51.698;-0.292;2022-10-19T07:49:09;185.35;;;167.13;;
22015;SDS011;11172;51.698;-0.292;2022-10-19T07:51:43;187.43;;;168.20;;
22015;SDS011;11172;51.698;-0.292;2022-10-19T07:57:01;271.83;;;197.23;;
22015;SDS011;11172;51.698;-0.292;2022-10-19T07:59:30;188.15;;;169.75;;
22015;SDS011;11172;51.698;-0.292;2022-10-19T08:01:56;207.20;;;173.35;;
22015;SDS011;11172;51.698;-0.292;2022-10-19T08:07:22;185.43;;;168.05;;
22015;SDS011;11172;51.698;-0.292;2022-10-19T08:09:50;174.50;;;157.85;;
22015;SDS011;11172;51.698;-0.292;2022-10-19T08:12:19;171.27;;;155.27;;
22015;SDS011;11172;51.698;-0.292;2022-10-19T08:14:58;157.00;;;142.32;;
22015;SDS011;11172;51.698;-0.292;2022-10-19T08:20:15;162.80;;;146.63;;
22015;SDS011;11172;51.698;-0.292;2022-10-19T08:22:52;148.95;;;135.55;;
22015;SDS011;11172;51.698;-0.292;2022-10-19T08:28:22;148.60;;;134.98;;
22015;SDS011;11172;51.698;-0.292;2022-10-19T08:33:54;154.63;;;140.45;;
22015;SDS011;11172;51.698;-0.292;2022-10-19T08:50:00;128.52;;;116.20;;
22015;SDS011;11172;51.698;-0.292;2022-10-19T08:52:31;123.38;;;111.78;;
22015;SDS011;11172;51.698;-0.292;2022-10-19T08:55:09;128.45;;;115.63;;
22015;SDS011;11172;51.698;-0.292;2022-10-19T08:58:27;128.60;;;116.72;;
22015;SDS011;11172;51.698;-0.292;2022-10-19T09:03:02;119.03;;;107.20;;
22015;SDS011;11172;51.698;-0.292;2022-10-19T09:05:39;122.13;;;110.15;;
22015;SDS011;11172;51.698;-0.292;2022-10-19T09:08:09;112.85;;;101.65;;
22015;SDS011;11172;51.698;-0.292;2022-10-19T09:10:38;116.95;;;105.15;;
22015;SDS011;11172;51.698;-0.292;2022-10-19T09:13:14;111.03;;;99.47;;
22015;SDS011;11172;51.698;-0.292;2022-10-19T09:15:49;110.20;;;99.05;;
22015;SDS011;11172;51.698;-0.292;2022-10-19T09:18:26;112.45;;;101.35;;
22015;SDS011;11172;51.698;-0.292;2022-10-19T09:21:00;104.82;;;94.82;;
22015;SDS011;11172;51.698;-0.292;2022-10-19T09:23:42;113.32;;;102.40;;
22015;SDS011;11172;51.698;-0.292;2022-10-19T09:26:11;104.32;;;94.22;;
22015;SDS011;11172;51.698;-0.292;2022-10-19T09:28:43;100.38;;;90.13;;
22015;SDS011;11172;51.698;-0.292;2022-10-19T09:31:21;100.38;;;90.90;;
22015;SDS011;11172;51.698;-0.292;2022-10-19T09:33:51;100.20;;;90.40;;
22015;SDS011;11172;51.698;-0.292;2022-10-19T09:36:19;100.97;;;90.72;;
22015;SDS011;11172;51.698;-0.292;2022-10-19T09:38:46;99.88;;;85.15;;
22015;SDS011;11172;51.698;-0.292;2022-10-19T09:41:14;90.53;;;81.47;;
22015;SDS011;11172;51.698;-0.292;2022-10-19T09:43:46;91.00;;;81.35;;
22015;SDS011;11172;51.698;-0.292;2022-10-19T09:46:19;92.65;;;83.47;;
22015;SDS011;11172;51.698;-0.292;2022-10-19T09:48:51;98.03;;;87.60;;
22015;SDS011;11172;51.698;-0.292;2022-10-19T09:51:17;90.75;;;81.45;;
22015;SDS011;11172;51.698;-0.292;2022-10-19T09:53:44;93.28;;;83.38;;
22015;SDS011;11172;51.698;-0.292;2022-10-19T09:56:18;87.55;;;78.70;;
22015;SDS011;11172;51.698;-0.292;2022-10-19T09:58:52;89.43;;;80.85;;
22015;SDS011;11172;51.698;-0.292;2022-10-19T10:01:29;86.72;;;77.22;;
22015;SDS011;11172;51.698;-0.292;2022-10-19T10:04:13;90.95;;;81.95;;
22015;SDS011;11172;51.698;-0.292;2022-10-19T10:06:39;78.43;;;70.60;;
22015;SDS011;11172;51.698;-0.292;2022-10-19T10:09:06;98.88;;;75.13;;
22015;SDS011;11172;51.698;-0.292;2022-10-19T10:11:36;83.35;;;74.68;;
22015;SDS011;11172;51.698;-0.292;2022-10-19T10:14:03;80.10;;;72.15;;
22015;SDS011;11172;51.698;-0.292;2022-10-19T10:16:30;81.05;;;73.32;;
22015;SDS011;11172;51.698;-0.292;2022-10-19T10:19:25;83.93;;;75.10;;
22015;SDS011;11172;51.698;-0.292;2022-10-19T10:21:48;83.90;;;75.57;;
22015;SDS011;11172;51.698;-0.292;2022-10-19T10:24:19;77.57;;;69.57;;
22015;SDS011;11172;51.698;-0.292;2022-10-19T10:26:47;73.85;;;66.07;;
22015;SDS011;11172;51.698;-0.292;2022-10-19T10:29:20;73.60;;;66.03;;
22015;SDS011;11172;51.698;-0.292;2022-10-19T10:31:47;66.63;;;59.92;;
22015;SDS011;11172;51.698;-0.292;2022-10-19T10:34:17;69.20;;;61.95;;
22015;SDS011;11172;51.698;-0.292;2022-10-19T10:36:47;72.90;;;60.70;;
22015;SDS011;11172;51.698;-0.292;2022-10-19T10:39:14;63.63;;;57.33;;
22015;SDS011;11172;51.698;-0.292;2022-10-19T10:41:42;59.88;;;54.53;;
22015;SDS011;11172;51.698;-0.292;2022-10-19T10:44:27;57.63;;;52.13;;
22015;SDS011;11172;51.698;-0.292;2022-10-19T10:46:55;57.90;;;52.45;;
22015;SDS011;11172;51.698;-0.292;2022-10-19T10:49:22;56.42;;;50.35;;
22015;SDS011;11172;51.698;-0.292;2022-10-19T10:54:34;53.47;;;48.65;;
22015;SDS011;11172;51.698;-0.292;2022-10-19T10:59:33;53.42;;;48.13;;
22015;SDS011;11172;51.698;-0.292;2022-10-19T11:02:01;51.22;;;46.45;;
22015;SDS011;11172;51.698;-0.292;2022-10-19T11:04:30;57.78;;;52.13;;
22015;SDS011;11172;51.698;-0.292;2022-10-19T11:06:58;59.67;;;53.22;;
22015;SDS011;11172;51.698;-0.292;2022-10-19T11:09:41;55.63;;;50.35;;
22015;SDS011;11172;51.698;-0.292;2022-10-19T11:12:09;56.17;;;50.50;;
22015;SDS011;11172;51.698;-0.292;2022-10-19T11:14:57;48.40;;;43.85;;
22015;SDS011;11172;51.698;-0.292;2022-10-19T11:17:29;59.03;;;53.50;;
22015;SDS011;11172;51.698;-0.292;2022-10-19T11:19:55;56.70;;;50.60;;
22015;SDS011;11172;51.698;-0.292;2022-10-19T11:22:28;51.08;;;46.03;;
22015;SDS011;11172;51.698;-0.292;2022-10-19T11:25:03;50.97;;;46.20;;
22015;SDS011;11172;51.698;-0.292;2022-10-19T11:30:22;53.38;;;47.72;;
22015;SDS011;11172;51.698;-0.292;2022-10-19T11:46:06;59.58;;;51.38;;
22015;SDS011;11172;51.698;-0.292;2022-10-19T11:51:04;54.40;;;48.95;;
22015;SDS011;11172;51.698;-0.292;2022-10-19T11:53:34;57.25;;;51.35;;
22015;SDS011;11172;51.698;-0.292;2022-10-19T11:56:08;54.15;;;49.08;;
22015;SDS011;11172;51.698;-0.292;2022-10-19T12:01:10;52.80;;;47.33;;
22015;SDS011;11172;51.698;-0.292;2022-10-19T12:11:23;57.00;;;51.55;;
22015;SDS011;11172;51.698;-0.292;2022-10-19T12:13:56;60.53;;;54.60;;
22015;SDS011;11172;51.698;-0.292;2022-10-19T12:16:28;61.05;;;54.42;;
22015;SDS011;11172;51.698;-0.292;2022-10-19T12:18:56;56.80;;;51.17;;
22015;SDS011;11172;51.698;-0.292;2022-10-19T12:21:46;61.10;;;54.92;;
22015;SDS011;11172;51.698;-0.292;2022-10-19T12:24:12;63.08;;;56.88;;
22015;SDS011;11172;51.698;-0.292;2022-10-19T12:26:40;72.40;;;64.13;;
22015;SDS011;11172;51.698;-0.292;2022-10-19T12:29:23;74.75;;;59.88;;
22015;SDS011;11172;51.698;-0.292;2022-10-19T12:31:51;71.88;;;64.75;;
22015;SDS011;11172;51.698;-0.292;2022-10-19T12:42:16;127.38;;;115.97;;
22015;SDS011;11172;51.698;-0.292;2022-10-19T12:47:20;153.80;;;140.00;;
22015;SDS011;11172;51.698;-0.292;2022-10-19T12:49:50;155.40;;;141.25;;
22015;SDS011;11172;51.698;-0.292;2022-10-19T12:52:38;156.45;;;142.70;;
22015;SDS011;11172;51.698;-0.292;2022-10-19T12:57:35;193.13;;;176.20;;
22015;SDS011;11172;51.698;-0.292;2022-10-19T13:00:25;195.10;;;177.80;;
22015;SDS011;11172;51.698;-0.292;2022-10-19T13:03:02;209.05;;;190.43;;
22015;SDS011;11172;51.698;-0.292;2022-10-19T13:05:29;220.85;;;201.05;;
22015;SDS011;11172;51.698;-0.292;2022-10-19T13:07:56;204.93;;;186.88;;
22015;SDS011;11172;51.698;-0.292;2022-10-19T13:10:25;192.70;;;175.45;;
22015;SDS011;11172;51.698;-0.292;2022-10-19T13:12:51;199.65;;;182.25;;
22015;SDS011;11172;51.698;-0.292;2022-10-19T13:18:02;216.73;;;197.55;;
22015;SDS011;11172;51.698;-0.292;2022-10-19T13:25:28;211.95;;;193.98;;
22015;SDS011;11172;51.698;-0.292;2022-10-19T13:40:57;249.30;;;228.73;;
22015;SDS011;11172;51.698;-0.292;2022-10-19T13:43:25;283.00;;;259.33;;
22015;SDS011;11172;51.698;-0.292;2022-10-19T13:45:52;294.73;;;270.70;;
22015;SDS011;11172;51.698;-0.292;2022-10-19T13:48:22;308.00;;;282.45;;
22015;SDS011;11172;51.698;-0.292;2022-10-19T13:51:00;318.23;;;292.58;;
22015;SDS011;11172;51.698;-0.292;2022-10-19T13:56:24;363.23;;;334.10;;
22015;SDS011;11172;51.698;-0.292;2022-10-19T13:59:13;371.13;;;341.60;;
22015;SDS011;11172;51.698;-0.292;2022-10-19T14:01:55;444.00;;;408.30;;
22015;SDS011;11172;51.698;-0.292;2022-10-19T14:07:11;476.42;;;439.60;;
22015;SDS011;11172;51.698;-0.292;2022-10-19T14:12:19;485.20;;;446.73;;
22015;SDS011;11172;51.698;-0.292;2022-10-19T14:14:47;508.70;;;469.33;;
22015;SDS011;11172;51.698;-0.292;2022-10-19T14:17:15;505.10;;;465.98;;
22015;SDS011;11172;51.698;-0.292;2022-10-19T14:19:44;521.80;;;481.95;;
22015;SDS011;11172;51.698;-0.292;2022-10-19T14:22:30;538.60;;;496.83;;
22015;SDS011;11172;51.698;-0.292;2022-10-19T14:27:25;545.75;;;503.15;;
22015;SDS011;11172;51.698;-0.292;2022-10-19T14:29:52;553.58;;;510.17;;
22015;SDS011;11172;51.698;-0.292;2022-10-19T14:32:21;569.42;;;524.25;;
22015;SDS011;11172;51.698;-0.292;2022-10-19T14:34:48;586.28;;;539.78;;
22015;SDS011;11172;51.698;-0.292;2022-10-19T14:37:19;584.78;;;538.08;;
22015;SDS011;11172;51.698;-0.292;2022-10-19T14:42:47;642.55;;;590.83;;
22015;SDS011;11172;51.698;-0.292;2022-10-19T14:45:14;625.53;;;575.40;;
22015;SDS011;11172;51.698;-0.292;2022-10-19T14:50:16;644.47;;;592.47;;
22015;SDS011;11172;51.698;-0.292;2022-10-19T14:52:44;609.28;;;560.30;;
22015;SDS011;11172;51.698;-0.292;2022-10-19T14:55:13;624.28;;;574.22;;
22015;SDS011;11172;51.698;-0.292;2022-10-19T14:57:41;606.95;;;558.58;;
22015;SDS011;11172;51.698;-0.292;2022-10-19T15:00:16;616.50;;;567.00;;
22015;SDS011;11172;51.698;-0.292;2022-10-19T15:05:19;682.40;;;625.65;;
22015;SDS011;11172;51.698;-0.292;2022-10-19T15:07:45;635.03;;;582.78;;
22015;SDS011;11172;51.698;-0.292;2022-10-19T15:12:44;612.97;;;563.45;;
22015;SDS011;11172;51.698;-0.292;2022-10-19T15:15:18;612.83;;;562.88;;
22015;SDS011;11172;51.698;-0.292;2022-10-19T15:20:24;623.60;;;573.70;;
22015;SDS011;11172;51.698;-0.292;2022-10-19T15:22:51;616.33;;;566.33;;
22015;SDS011;11172;51.698;-0.292;2022-10-19T15:25:31;617.70;;;568.13;;
22015;SDS011;11172;51.698;-0.292;2022-10-19T15:28:17;632.25;;;580.30;;
22015;SDS011;11172;51.698;-0.292;2022-10-19T15:30:43;630.85;;;579.10;;
22015;SDS011;11172;51.698;-0.292;2022-10-19T15:33:12;627.00;;;576.00;;
22015;SDS011;11172;51.698;-0.292;2022-10-19T15:35:39;631.60;;;579.63;;
22015;SDS011;11172;51.698;-0.292;2022-10-19T15:38:28;640.70;;;587.90;;
22015;SDS011;11172;51.698;-0.292;2022-10-19T15:40:56;652.25;;;598.25;;
22015;SDS011;11172;51.698;-0.292;2022-10-19T15:48:45;659.03;;;604.00;;
22015;SDS011;11172;51.698;-0.292;2022-10-19T15:53:51;661.00;;;606.10;;
22015;SDS011;11172;51.698;-0.292;2022-10-19T15:56:17;651.58;;;597.35;;
22015;SDS011;11172;51.698;-0.292;2022-10-19T15:58:43;652.00;;;597.85;;
22015;SDS011;11172;51.698;-0.292;2022-10-19T16:01:10;655.22;;;599.70;;
22015;SDS011;11172;51.698;-0.292;2022-10-19T16:03:40;661.20;;;606.55;;
22015;SDS011;11172;51.698;-0.292;2022-10-19T16:06:06;656.42;;;601.33;;
22015;SDS011;11172;51.698;-0.292;2022-10-19T16:08:32;654.63;;;600.03;;
22015;SDS011;11172;51.698;-0.292;2022-10-19T16:10:58;669.88;;;613.45;;
22015;SDS011;11172;51.698;-0.292;2022-10-19T16:13:24;668.63;;;611.85;;
22015;SDS011;11172;51.698;-0.292;2022-10-19T16:15:50;671.65;;;614.80;;
22015;SDS011;11172;51.698;-0.292;2022-10-19T16:18:18;659.00;;;603.50;;
22015;SDS011;11172;51.698;-0.292;2022-10-19T16:20:44;665.55;;;608.95;;
22015;SDS011;11172;51.698;-0.292;2022-10-19T16:23:11;680.53;;;622.65;;
22015;SDS011;11172;51.698;-0.292;2022-10-19T16:25:38;682.85;;;624.58;;
22015;SDS011;11172;51.698;-0.292;2022-10-19T16:28:04;682.78;;;623.30;;
22015;SDS011;11172;51.698;-0.292;2022-10-19T16:30:30;671.40;;;614.25;;
22015;SDS011;11172;51.698;-0.292;2022-10-19T16:32:56;668.85;;;611.65;;
22015;SDS011;11172;51.698;-0.292;2022-10-19T16:35:22;679.17;;;621.22;;
22015;SDS011;11172;51.698;-0.292;2022-10-19T16:37:49;668.40;;;610.80;;
22015;SDS011;11172;51.698;-0.292;2022-10-19T16:40:15;678.28;;;619.83;;
22015;SDS011;11172;51.698;-0.292;2022-10-19T16:42:41;683.17;;;623.35;;
22015;SDS011;11172;51.698;-0.292;2022-10-19T16:45:08;689.90;;;630.22;;
22015;SDS011;11172;51.698;-0.292;2022-10-19T16:47:35;686.65;;;627.22;;
22015;SDS011;11172;51.698;-0.292;2022-10-19T16:50:02;687.17;;;627.13;;
22015;SDS011;11172;51.698;-0.292;2022-10-19T16:52:28;695.58;;;634.22;;
22015;SDS011;11172;51.698;-0.292;2022-10-19T16:58:00;701.58;;;639.67;;
22015;SDS011;11172;51.698;-0.292;2022-10-19T17:00:32;688.38;;;627.92;;
22015;SDS011;11172;51.698;-0.292;2022-10-19T17:03:02;687.60;;;628.97;;
22015;SDS011;11172;51.698;-0.292;2022-10-19T17:05:29;680.38;;;620.90;;
22015;SDS011;11172;51.698;-0.292;2022-10-19T17:07:55;686.90;;;627.10;;
22015;SDS011;11172;51.698;-0.292;2022-10-19T17:10:24;690.28;;;629.33;;
22015;SDS011;11172;51.698;-0.292;2022-10-19T17:12:54;689.95;;;628.20;;
22015;SDS011;11172;51.698;-0.292;2022-10-19T17:15:20;673.65;;;614.13;;
22015;SDS011;11172;51.698;-0.292;2022-10-19T17:17:47;690.03;;;628.45;;
22015;SDS011;11172;51.698;-0.292;2022-10-19T17:20:13;677.15;;;617.28;;
22015;SDS011;11172;51.698;-0.292;2022-10-19T17:22:39;689.35;;;628.58;;
22015;SDS011;11172;51.698;-0.292;2022-10-19T17:25:05;692.53;;;630.90;;
22015;SDS011;11172;51.698;-0.292;2022-10-19T17:27:32;685.67;;;624.30;;
22015;SDS011;11172;51.698;-0.292;2022-10-19T17:30:21;692.47;;;630.75;;
22015;SDS011;11172;51.698;-0.292;2022-10-19T17:33:07;700.50;;;636.65;;
22015;SDS011;11172;51.698;-0.292;2022-10-19T17:35:35;675.17;;;614.80;;
22015;SDS011;11172;51.698;-0.292;2022-10-19T17:43:13;710.78;;;638.33;;